Time;durP1;ratioP1;P1;durP2;ratioP2;P2;SDS_P1;SDS_P2;PMS_P1;PMS_P2;Temp;Humidity;BMP_temperature;BMP_pressure;BME280_temperature;BME280_humidity;BME280_pressure;Samples;Min_cycle;Max_cycle;Signal;HPM_P1;HPM_P2
2023/02/18 00:01:25;;;;;;;1.38;1.00;;;12.40;99.90;;;;;;4988089;28;20137;-81
2023/02/18 00:03:52;;;;;;;2.22;1.30;;;12.40;99.90;;;;;;5005255;28;20580;-81
2023/02/18 00:06:29;;;;;;;1.65;1.27;;;12.40;99.90;;;;;;5004362;28;20088;-81
2023/02/18 00:08:57;;;;;;;1.17;1.00;;;12.50;99.90;;;;;;4989316;28;20049;-81
2023/02/18 00:11:24;;;;;;;1.55;1.00;;;12.40;99.90;;;;;;5005358;28;20412;-81
2023/02/18 00:13:52;;;;;;;1.67;1.10;;;12.50;99.90;;;;;;4987833;28;20049;-81
2023/02/18 00:16:21;;;;;;;1.25;0.90;;;12.40;99.90;;;;;;4987636;28;20132;-81
2023/02/18 00:18:48;;;;;;;1.65;1.00;;;12.50;99.90;;;;;;5005096;28;20056;-81
2023/02/18 00:21:15;;;;;;;1.10;1.00;;;12.40;99.90;;;;;;4972565;28;20427;-81
2023/02/18 00:23:41;;;;;;;1.33;0.90;;;12.40;99.90;;;;;;4988542;28;20049;-80
2023/02/18 00:26:14;;;;;;;2.00;1.33;;;12.50;99.90;;;;;;4987808;28;20520;-82
2023/02/18 00:28:41;;;;;;;1.42;1.08;;;12.50;99.90;;;;;;5004050;28;20487;-80
2023/02/18 00:31:09;;;;;;;1.38;0.93;;;12.50;99.90;;;;;;4987375;28;20052;-81
2023/02/18 00:33:36;;;;;;;1.45;0.82;;;12.50;99.90;;;;;;4988351;28;20057;-82
2023/02/18 00:36:04;;;;;;;1.33;0.65;;;12.50;99.90;;;;;;5004347;28;20077;-81
2023/02/18 00:38:31;;;;;;;2.53;1.17;;;12.50;99.90;;;;;;5003470;28;20115;-83
2023/02/18 00:40:58;;;;;;;1.60;1.00;;;12.50;99.90;;;;;;5000907;28;20061;-82
2023/02/18 00:43:25;;;;;;;2.63;1.10;;;12.50;99.90;;;;;;4988607;28;20115;-82
2023/02/18 00:45:51;;;;;;;1.17;1.08;;;12.50;99.90;;;;;;5007134;28;20146;-82
2023/02/18 00:48:18;;;;;;;1.23;0.90;;;12.40;99.90;;;;;;4989275;28;20082;-82
2023/02/18 00:50:45;;;;;;;2.97;1.48;;;12.40;99.90;;;;;;5008162;28;20452;-81
2023/02/18 00:53:12;;;;;;;0.88;0.80;;;12.40;99.90;;;;;;4991053;28;20168;-82
2023/02/18 00:55:40;;;;;;;1.50;1.40;;;12.30;99.90;;;;;;5008037;28;20173;-82
2023/02/18 00:58:07;;;;;;;2.03;1.10;;;12.20;99.90;;;;;;4973911;28;20424;-82
2023/02/18 01:00:33;;;;;;;0.80;0.80;;;12.20;99.90;;;;;;4986859;28;20050;-82
2023/02/18 01:03:00;;;;;;;2.13;1.00;;;12.10;99.90;;;;;;4666225;28;9999984;-82
2023/02/18 01:05:27;;;;;;;0.88;0.82;;;12.10;99.90;;;;;;5018658;28;20132;-81
2023/02/18 01:07:54;;;;;;;1.33;1.00;;;12.10;99.90;;;;;;5003833;28;20049;-82
2023/02/18 01:10:21;;;;;;;1.25;1.05;;;12.00;99.90;;;;;;5004224;28;20481;-82
2023/02/18 01:12:48;;;;;;;0.95;0.70;;;12.00;99.90;;;;;;4983148;28;20564;-83
2023/02/18 01:15:15;;;;;;;1.88;1.25;;;12.00;99.90;;;;;;4991457;28;20664;-82
2023/02/18 01:17:42;;;;;;;1.40;1.10;;;12.00;99.90;;;;;;4987289;28;20081;-82
2023/02/18 01:20:09;;;;;;;4.00;1.30;;;12.00;99.90;;;;;;5003203;28;20057;-81
2023/02/18 01:22:36;;;;;;;1.33;0.90;;;12.00;99.90;;;;;;5020647;28;20096;-82
2023/02/18 01:25:03;;;;;;;1.33;0.60;;;12.00;99.90;;;;;;5018180;28;20479;-82
2023/02/18 01:27:29;;;;;;;1.23;0.80;;;12.00;99.90;;;;;;5018085;28;20694;-82
2023/02/18 01:29:56;;;;;;;0.85;0.63;;;12.10;99.90;;;;;;5001397;28;20092;-80
2023/02/18 01:32:23;;;;;;;0.75;0.70;;;12.10;99.90;;;;;;5018891;28;20479;-82
2023/02/18 01:34:50;;;;;;;0.63;0.63;;;12.10;99.90;;;;;;5002358;28;20057;-82
2023/02/18 01:37:17;;;;;;;0.77;0.65;;;12.00;99.90;;;;;;4967624;28;20168;-82
2023/02/18 01:39:43;;;;;;;0.88;0.55;;;12.00;99.90;;;;;;5002198;28;20072;-81
2023/02/18 01:42:22;;;;;;;0.73;0.50;;;12.00;99.90;;;;;;5002371;28;20061;-81
2023/02/18 01:44:49;;;;;;;0.60;0.50;;;12.10;99.90;;;;;;4973430;28;20274;-81
2023/02/18 01:47:16;;;;;;;0.73;0.50;;;12.10;99.90;;;;;;4969934;28;20586;-81
2023/02/18 01:49:44;;;;;;;1.50;0.80;;;12.00;99.90;;;;;;5018829;28;20519;-82
2023/02/18 01:52:15;;;;;;;0.65;0.63;;;11.90;99.90;;;;;;5002645;28;20066;-82
2023/02/18 01:54:44;;;;;;;0.70;0.68;;;11.90;99.90;;;;;;5001324;28;20139;-82
2023/02/18 01:57:14;;;;;;;0.50;0.50;;;11.80;99.90;;;;;;4986013;28;20045;-82
2023/02/18 02:00:13;;;;;;;0.85;0.65;;;11.80;99.90;;;;;;5001823;28;20463;-80
2023/02/18 02:02:43;;;;;;;1.40;0.52;;;11.80;99.90;;;;;;5016088;28;20240;-80
2023/02/18 02:05:11;;;;;;;0.45;0.40;;;11.80;99.90;;;;;;5018298;28;20463;-80
2023/02/18 02:07:38;;;;;;;0.50;0.50;;;11.80;99.90;;;;;;4983448;28;20046;-80
2023/02/18 02:10:08;;;;;;;0.98;0.55;;;11.80;99.90;;;;;;4985835;28;20057;-80
2023/02/18 02:12:44;;;;;;;0.88;0.63;;;11.80;99.90;;;;;;5018177;28;20265;-80
2023/02/18 02:15:29;;;;;;;0.75;0.52;;;11.80;99.90;;;;;;5033162;28;20485;-81
2023/02/18 02:18:47;;;;;;;0.65;0.60;;;11.70;99.90;;;;;;5005532;28;20248;-81
2023/02/18 02:21:26;;;;;;;0.50;0.50;;;11.70;99.90;;;;;;4984167;28;20080;-81
2023/02/18 02:23:56;;;;;;;1.67;0.60;;;11.80;99.90;;;;;;5018705;28;20104;-81
2023/02/18 02:27:00;;;;;;;1.48;0.70;;;11.80;99.90;;;;;;5000964;28;20050;-82
2023/02/18 02:30:13;;;;;;;1.90;0.85;;;11.80;99.90;;;;;;5001376;28;20064;-81
2023/02/18 02:33:01;;;;;;;1.75;0.80;;;11.80;99.90;;;;;;4985419;28;20052;-81
2023/02/18 02:35:38;;;;;;;0.77;0.45;;;11.80;99.90;;;;;;5000517;28;20484;-79
2023/02/18 02:38:09;;;;;;;1.40;0.75;;;11.80;99.90;;;;;;4994024;28;20057;-82
2023/02/18 02:41:11;;;;;;;2.78;0.65;;;11.80;99.90;;;;;;5021914;28;20053;-79
2023/02/18 02:44:17;;;;;;;1.35;0.50;;;11.80;99.90;;;;;;4998193;28;20085;-80
2023/02/18 02:46:46;;;;;;;0.75;0.50;;;11.80;99.90;;;;;;5007858;28;20069;-81
2023/02/18 02:49:38;;;;;;;1.23;0.60;;;11.80;99.90;;;;;;4988982;28;20053;-80
2023/02/18 02:52:12;;;;;;;3.00;0.65;;;11.70;99.90;;;;;;5023458;28;20058;-82
2023/02/18 02:54:39;;;;;;;0.93;0.50;;;11.70;99.90;;;;;;5037999;28;20085;-81
2023/02/18 02:57:08;;;;;;;0.90;0.40;;;11.60;99.90;;;;;;4985987;28;20428;-81
2023/02/18 02:59:36;;;;;;;0.50;0.50;;;11.60;99.90;;;;;;4989511;28;20056;-80
2023/02/18 03:02:41;;;;;;;1.30;0.60;;;11.60;99.90;;;;;;5021391;28;20057;-82
2023/02/18 03:05:14;;;;;;;2.95;0.88;;;11.60;99.90;;;;;;5021878;28;20107;-82
2023/02/18 03:08:04;;;;;;;2.30;0.80;;;11.60;99.90;;;;;;5005143;28;20648;-82
2023/02/18 03:10:47;;;;;;;1.02;0.55;;;11.60;99.90;;;;;;5018723;28;20050;-82
2023/02/18 03:13:21;;;;;;;2.53;0.85;;;11.50;99.90;;;;;;5012786;28;20134;-83
2023/02/18 03:16:12;;;;;;;1.17;0.57;;;11.50;99.90;;;;;;5020740;28;20063;-82
2023/02/18 03:19:01;;;;;;;2.22;0.60;;;11.40;99.90;;;;;;5005114;28;20056;-81
2023/02/18 03:21:32;;;;;;;2.83;0.60;;;11.40;99.90;;;;;;5004998;28;20412;-82
2023/02/18 03:24:24;;;;;;;3.85;0.77;;;11.40;99.90;;;;;;5021651;28;20112;-82
2023/02/18 03:27:12;;;;;;;1.52;0.60;;;11.40;99.90;;;;;;5037530;28;20105;-81
2023/02/18 03:29:39;;;;;;;3.55;0.70;;;11.40;99.90;;;;;;4977886;28;20144;-80
2023/02/18 03:32:07;;;;;;;1.50;0.73;;;11.40;99.90;;;;;;5003704;28;20645;-82
2023/02/18 03:34:37;;;;;;;1.58;0.60;;;11.40;99.90;;;;;;5020956;28;20045;-82
2023/02/18 03:37:04;;;;;;;2.45;0.52;;;11.40;99.90;;;;;;5021334;28;20056;-80
2023/02/18 03:39:31;;;;;;;0.93;0.50;;;11.40;99.90;;;;;;5004669;28;20052;-82
2023/02/18 03:41:58;;;;;;;1.38;0.50;;;11.40;99.90;;;;;;5020432;28;20508;-81
2023/02/18 03:44:25;;;;;;;1.30;0.75;;;11.40;99.90;;;;;;5004435;28;20518;-81
2023/02/18 03:46:52;;;;;;;3.00;1.08;;;11.50;99.90;;;;;;5019880;28;20155;-82
2023/02/18 03:49:19;;;;;;;2.75;0.80;;;11.40;99.90;;;;;;4988173;28;20156;-82
2023/02/18 03:51:46;;;;;;;1.73;0.82;;;11.50;99.90;;;;;;4988401;28;20135;-82
2023/02/18 03:54:13;;;;;;;1.25;0.80;;;11.40;99.90;;;;;;5004925;28;20049;-82
2023/02/18 03:56:41;;;;;;;1.35;0.70;;;11.40;99.90;;;;;;5022477;28;20060;-81
2023/02/18 03:59:08;;;;;;;2.53;0.80;;;11.40;99.90;;;;;;4996838;28;20095;-82
2023/02/18 04:01:35;;;;;;;1.48;0.50;;;11.40;99.90;;;;;;5003630;28;20068;-82
2023/02/18 04:04:02;;;;;;;3.08;1.27;;;11.40;99.90;;;;;;5004007;28;20133;-82
2023/02/18 04:06:28;;;;;;;2.00;0.63;;;11.40;99.90;;;;;;5004481;28;20107;-82
2023/02/18 04:08:57;;;;;;;2.40;1.08;;;11.30;99.90;;;;;;5020559;28;20059;-82
2023/02/18 04:11:25;;;;;;;1.85;0.88;;;11.30;99.90;;;;;;4988509;28;20057;-82
2023/02/18 04:13:51;;;;;;;1.88;0.80;;;11.30;99.90;;;;;;5003460;28;20061;-82
2023/02/18 04:16:18;;;;;;;2.38;1.38;;;11.30;99.90;;;;;;4986827;28;20115;-82
2023/02/18 04:18:45;;;;;;;1.67;0.88;;;11.30;99.90;;;;;;5003160;28;20172;-82
2023/02/18 04:21:12;;;;;;;3.47;0.88;;;11.30;99.90;;;;;;5020939;28;20053;-81
2023/02/18 04:23:38;;;;;;;1.85;0.70;;;11.30;99.90;;;;;;5021596;28;20474;-81
2023/02/18 04:26:05;;;;;;;1.67;0.60;;;11.30;99.90;;;;;;5003822;28;20054;-82
2023/02/18 04:28:32;;;;;;;1.65;0.50;;;11.30;99.90;;;;;;5003565;28;20049;-82
2023/02/18 04:30:59;;;;;;;4.50;1.00;;;11.30;99.90;;;;;;5003582;28;20132;-82
2023/02/18 04:33:26;;;;;;;1.30;0.77;;;11.30;99.90;;;;;;5004286;28;20049;-82
2023/02/18 04:35:53;;;;;;;2.03;0.70;;;11.20;99.90;;;;;;5004091;28;20053;-82
2023/02/18 04:38:19;;;;;;;1.65;0.57;;;11.30;99.90;;;;;;5003854;28;20176;-82
2023/02/18 04:40:46;;;;;;;1.65;1.02;;;11.20;99.90;;;;;;5004266;28;20045;-81
2023/02/18 04:43:13;;;;;;;1.40;0.70;;;11.20;99.90;;;;;;5021875;28;20200;-81
2023/02/18 04:45:40;;;;;;;1.10;0.50;;;11.20;99.90;;;;;;4985594;28;20053;-82
2023/02/18 04:48:07;;;;;;;0.60;0.50;;;11.20;99.90;;;;;;5004464;28;20177;-82
2023/02/18 04:50:34;;;;;;;0.98;0.40;;;11.20;99.90;;;;;;5000457;28;20056;-82
2023/02/18 04:53:01;;;;;;;2.78;1.08;;;11.20;99.90;;;;;;4995208;28;20053;-81
2023/02/18 04:55:28;;;;;;;1.13;0.45;;;11.20;99.90;;;;;;5019942;28;20140;-82
2023/02/18 04:57:54;;;;;;;1.27;0.60;;;11.20;99.90;;;;;;5003499;28;20057;-82
2023/02/18 05:00:21;;;;;;;1.05;0.50;;;11.20;99.90;;;;;;5002523;28;20053;-82
2023/02/18 05:02:48;;;;;;;2.58;0.65;;;11.20;99.90;;;;;;4996992;28;20132;-82
2023/02/18 05:05:15;;;;;;;1.17;0.60;;;11.10;99.90;;;;;;4654781;28;10000279;-82
2023/02/18 05:07:42;;;;;;;1.67;0.60;;;11.20;99.90;;;;;;5021617;28;20136;-81
2023/02/18 05:10:10;;;;;;;2.40;0.60;;;11.20;99.90;;;;;;4989781;28;20056;-81
2023/02/18 05:12:37;;;;;;;1.75;0.57;;;11.20;99.90;;;;;;5024726;28;20048;-82
2023/02/18 05:15:04;;;;;;;2.10;0.60;;;11.20;99.90;;;;;;5005030;28;20158;-81
2023/02/18 05:17:31;;;;;;;1.48;0.70;;;11.20;99.90;;;;;;5007001;28;20042;-82
2023/02/18 05:19:58;;;;;;;1.23;0.60;;;11.20;99.90;;;;;;4989861;28;20132;-81
2023/02/18 05:22:25;;;;;;;1.75;0.50;;;11.10;99.90;;;;;;5006359;28;20053;-81
2023/02/18 05:24:51;;;;;;;2.70;0.77;;;11.20;99.90;;;;;;4989678;28;20585;-81
2023/02/18 05:27:18;;;;;;;2.78;1.00;;;11.20;99.90;;;;;;4973787;28;20100;-81
2023/02/18 05:29:45;;;;;;;1.15;0.70;;;11.20;99.90;;;;;;4987148;28;20089;-81
2023/02/18 05:32:12;;;;;;;2.13;0.60;;;11.20;99.90;;;;;;5006792;28;20509;-82
2023/02/18 05:34:39;;;;;;;1.67;0.55;;;11.20;99.90;;;;;;5002119;28;20107;-82
2023/02/18 05:37:05;;;;;;;0.93;0.57;;;11.20;99.90;;;;;;5009677;28;20045;-82
2023/02/18 05:39:32;;;;;;;1.33;0.60;;;11.20;99.90;;;;;;5009629;28;20096;-81
2023/02/18 05:41:59;;;;;;;1.00;0.40;;;11.20;99.90;;;;;;4977362;28;20053;-81
2023/02/18 05:44:29;;;;;;;1.35;0.60;;;11.20;99.90;;;;;;5026748;28;20064;-81
2023/02/18 05:47:06;;;;;;;0.98;0.45;;;11.30;99.90;;;;;;5008590;28;20553;-82
2023/02/18 05:49:36;;;;;;;1.02;0.60;;;11.30;99.90;;;;;;4993953;28;20056;-82
2023/02/18 05:52:03;;;;;;;1.20;0.63;;;11.30;99.90;;;;;;4976678;28;20057;-81
2023/02/18 05:54:30;;;;;;;1.15;0.50;;;11.30;99.90;;;;;;4992799;28;20049;-81
2023/02/18 05:56:57;;;;;;;1.52;0.52;;;11.30;99.90;;;;;;4992676;28;20813;-81
2023/02/18 05:59:23;;;;;;;2.17;0.65;;;11.30;99.90;;;;;;5008992;28;20534;-81
2023/02/18 06:01:50;;;;;;;2.03;0.68;;;11.30;99.90;;;;;;4992292;28;20050;-81
2023/02/18 06:04:17;;;;;;;0.70;0.45;;;11.30;99.90;;;;;;5002910;28;20136;-81
2023/02/18 06:06:44;;;;;;;1.45;0.38;;;11.30;99.90;;;;;;4988585;28;20536;-81
2023/02/18 06:09:10;;;;;;;1.23;0.68;;;11.30;99.90;;;;;;5005306;28;20056;-81
2023/02/18 06:11:37;;;;;;;2.00;0.73;;;11.30;99.90;;;;;;5021743;28;20049;-81
2023/02/18 06:14:04;;;;;;;0.90;0.45;;;11.30;99.90;;;;;;5021889;28;20072;-80
2023/02/18 06:16:31;;;;;;;1.35;0.60;;;11.30;99.90;;;;;;4988310;28;20188;-81
2023/02/18 06:18:58;;;;;;;1.30;0.60;;;11.30;99.90;;;;;;4988886;28;20042;-82
2023/02/18 06:21:24;;;;;;;0.55;0.50;;;11.30;99.90;;;;;;4989381;28;20521;-81
2023/02/18 06:23:51;;;;;;;1.15;0.40;;;11.30;99.90;;;;;;4985457;28;20140;-81
2023/02/18 06:26:18;;;;;;;1.20;0.50;;;11.30;99.90;;;;;;4997665;28;20045;-81
2023/02/18 06:28:45;;;;;;;1.73;0.60;;;11.30;99.90;;;;;;4972860;28;20060;-82
2023/02/18 06:31:12;;;;;;;1.27;0.57;;;11.30;99.90;;;;;;5010425;28;20127;-82
2023/02/18 06:33:38;;;;;;;0.65;0.50;;;11.30;99.90;;;;;;5001241;28;20057;-81
2023/02/18 06:36:07;;;;;;;1.27;0.77;;;11.30;99.90;;;;;;5004858;28;20089;-81
2023/02/18 06:38:34;;;;;;;1.50;0.50;;;11.30;99.90;;;;;;4997934;28;20049;-81
2023/02/18 06:41:01;;;;;;;2.22;0.73;;;11.40;99.90;;;;;;5016017;28;20115;-81
2023/02/18 06:43:28;;;;;;;0.85;0.43;;;11.30;99.90;;;;;;5002026;28;20084;-81
2023/02/18 06:45:55;;;;;;;2.28;0.55;;;11.40;99.90;;;;;;5015600;28;20111;-81
2023/02/18 06:48:22;;;;;;;2.17;0.68;;;11.40;99.90;;;;;;5003595;28;20046;-81
2023/02/18 06:50:48;;;;;;;1.23;0.50;;;11.40;99.90;;;;;;4968512;28;20054;-82
2023/02/18 06:53:18;;;;;;;0.45;0.43;;;11.40;99.90;;;;;;4996844;28;20127;-82
2023/02/18 06:55:45;;;;;;;0.80;0.70;;;11.40;99.90;;;;;;4988419;28;20065;-82
2023/02/18 06:58:12;;;;;;;0.95;0.45;;;11.40;99.90;;;;;;5002264;28;20042;-82
2023/02/18 07:00:39;;;;;;;1.48;0.60;;;11.40;99.90;;;;;;5000358;28;20128;-82
2023/02/18 07:03:06;;;;;;;1.00;0.70;;;11.40;99.90;;;;;;5025803;28;20134;-81
2023/02/18 07:05:32;;;;;;;1.40;0.70;;;11.40;99.90;;;;;;4986200;28;20063;-81
2023/02/18 07:07:59;;;;;;;2.58;0.65;;;11.40;99.90;;;;;;4976390;28;20741;-82
2023/02/18 07:10:26;;;;;;;1.17;0.50;;;11.50;99.90;;;;;;4993916;28;20151;-82
2023/02/18 07:12:53;;;;;;;1.73;1.00;;;11.50;99.90;;;;;;4983659;28;20144;-82
2023/02/18 07:15:23;;;;;;;0.63;0.47;;;11.40;99.90;;;;;;4999683;28;20053;-83
2023/02/18 07:17:50;;;;;;;1.13;0.40;;;11.50;99.90;;;;;;5012083;28;20050;-83
2023/02/18 07:20:18;;;;;;;0.90;0.50;;;11.50;99.90;;;;;;5002778;28;20056;-81
2023/02/18 07:22:44;;;;;;;1.27;0.60;;;11.50;99.90;;;;;;4985493;28;20053;-82
2023/02/18 07:25:11;;;;;;;0.63;0.40;;;11.50;99.90;;;;;;4978947;28;20165;-82
2023/02/18 07:27:38;;;;;;;1.85;0.70;;;11.40;99.90;;;;;;4987218;28;20145;-81
2023/02/18 07:30:05;;;;;;;1.48;0.73;;;11.50;99.90;;;;;;5017176;28;20053;-81
2023/02/18 07:32:33;;;;;;;1.73;0.80;;;11.40;99.90;;;;;;4996949;28;20136;-80
2023/02/18 07:35:00;;;;;;;2.03;0.65;;;11.40;99.90;;;;;;4983608;28;20049;-81
2023/02/18 07:37:26;;;;;;;1.00;0.50;;;11.50;99.90;;;;;;4984190;28;20084;-80
2023/02/18 07:39:53;;;;;;;2.33;0.60;;;11.50;99.90;;;;;;5018149;28;20048;-81
2023/02/18 07:42:20;;;;;;;1.27;0.43;;;11.50;99.90;;;;;;5018086;28;20053;-81
2023/02/18 07:44:47;;;;;;;1.77;1.02;;;11.50;99.90;;;;;;5013395;28;20052;-80
2023/02/18 07:47:16;;;;;;;1.77;0.68;;;11.50;99.90;;;;;;5012231;28;20129;-80
2023/02/18 07:49:42;;;;;;;1.38;0.80;;;11.50;99.90;;;;;;5027098;28;20041;-81
2023/02/18 07:52:09;;;;;;;0.77;0.60;;;11.50;99.90;;;;;;5012365;28;20057;-82
2023/02/18 07:54:36;;;;;;;0.93;0.63;;;11.50;99.90;;;;;;4976849;28;20057;-83
2023/02/18 07:57:03;;;;;;;1.75;0.70;;;11.60;99.90;;;;;;4996348;28;20500;-82
2023/02/18 07:59:30;;;;;;;2.45;1.08;;;11.60;99.90;;;;;;4998121;28;20060;-82
2023/02/18 08:01:56;;;;;;;2.10;0.70;;;11.50;99.90;;;;;;4981601;28;20476;-82
2023/02/18 08:04:24;;;;;;;1.48;0.60;;;11.60;99.90;;;;;;4980836;28;20053;-83
2023/02/18 08:06:51;;;;;;;1.15;0.60;;;11.60;99.90;;;;;;4996429;28;20053;-82
2023/02/18 08:09:18;;;;;;;1.10;0.73;;;11.60;99.90;;;;;;4998314;28;20071;-82
2023/02/18 08:11:44;;;;;;;1.13;0.60;;;11.70;99.90;;;;;;4980844;28;20045;-82
2023/02/18 08:14:11;;;;;;;2.60;0.88;;;11.70;99.90;;;;;;4982600;28;20057;-83
2023/02/18 08:16:38;;;;;;;1.85;0.80;;;11.70;99.90;;;;;;4981524;28;20045;-82
2023/02/18 08:19:05;;;;;;;3.22;0.68;;;11.70;99.90;;;;;;5001816;28;20057;-82
2023/02/18 08:21:31;;;;;;;1.98;1.15;;;11.70;99.90;;;;;;4999556;28;20046;-82
2023/02/18 08:23:58;;;;;;;1.42;0.60;;;11.80;99.90;;;;;;4981102;28;20049;-83
2023/02/18 08:26:25;;;;;;;3.00;0.60;;;11.80;99.90;;;;;;4997571;28;20045;-83
2023/02/18 08:28:52;;;;;;;1.77;0.60;;;11.80;99.90;;;;;;4981168;28;20080;-83
2023/02/18 08:31:24;;;;;;;2.47;0.68;;;11.80;99.90;;;;;;5016294;28;20057;-81
2023/02/18 08:33:52;;;;;;;0.50;0.50;;;11.90;99.90;;;;;;4981513;28;20073;-82
2023/02/18 08:36:19;;;;;;;1.13;0.68;;;11.90;99.90;;;;;;5011728;28;20057;-82
2023/02/18 08:38:46;;;;;;;1.25;0.40;;;11.90;99.90;;;;;;4994749;28;20971;-83
2023/02/18 08:41:13;;;;;;;2.15;0.80;;;12.00;99.90;;;;;;4977927;28;20402;-83
2023/02/18 08:43:41;;;;;;;1.15;0.60;;;11.90;99.90;;;;;;4977419;28;20095;-82
2023/02/18 08:46:07;;;;;;;1.83;0.68;;;11.90;99.90;;;;;;4981295;28;20535;-82
2023/02/18 08:48:42;;;;;;;1.35;0.40;;;12.00;99.90;;;;;;5016669;28;20539;-82
2023/02/18 08:51:11;;;;;;;0.98;0.55;;;12.00;99.90;;;;;;4999098;28;20061;-82
2023/02/18 08:53:38;;;;;;;0.63;0.35;;;12.00;99.90;;;;;;4999413;28;20385;-82
2023/02/18 08:56:07;;;;;;;1.38;0.70;;;12.00;99.90;;;;;;4998362;28;20064;-83
2023/02/18 08:58:36;;;;;;;1.05;0.50;;;12.10;99.90;;;;;;4998435;28;20156;-82
2023/02/18 09:01:04;;;;;;;2.33;0.75;;;12.10;99.90;;;;;;4994990;28;20046;-82
2023/02/18 09:03:32;;;;;;;1.40;0.50;;;12.20;99.90;;;;;;4992162;28;20500;-82
2023/02/18 09:05:59;;;;;;;0.68;0.55;;;12.30;99.90;;;;;;4998899;28;21407;-82
2023/02/18 09:08:26;;;;;;;2.78;0.70;;;12.30;99.90;;;;;;4981369;28;20150;-83
2023/02/18 09:10:57;;;;;;;1.15;0.63;;;12.30;99.90;;;;;;4992711;28;20196;-83
2023/02/18 09:13:24;;;;;;;1.50;0.60;;;12.30;99.90;;;;;;4997043;28;20049;-82
2023/02/18 09:16:02;;;;;;;1.30;0.80;;;12.30;99.90;;;;;;4965018;28;20464;-83
2023/02/18 09:18:29;;;;;;;3.50;0.70;;;12.40;99.90;;;;;;4965800;28;20072;-82
2023/02/18 09:20:57;;;;;;;3.40;0.95;;;12.40;99.90;;;;;;4982497;28;20151;-81
2023/02/18 09:23:25;;;;;;;2.28;1.02;;;12.50;99.90;;;;;;4999905;28;20152;-82
2023/02/18 09:25:52;;;;;;;2.15;0.80;;;12.50;99.90;;;;;;4982073;28;20050;-82
2023/02/18 09:28:19;;;;;;;0.85;0.43;;;12.60;99.90;;;;;;5000541;28;20125;-80
2023/02/18 09:30:45;;;;;;;1.85;0.82;;;12.60;99.90;;;;;;4982597;28;20463;-81
2023/02/18 09:33:12;;;;;;;1.13;0.60;;;12.70;99.90;;;;;;4998477;28;20049;-79
2023/02/18 09:35:43;;;;;;;2.17;0.60;;;12.70;99.90;;;;;;5014067;28;20546;-80
2023/02/18 09:38:12;;;;;;;0.95;0.63;;;12.70;99.90;;;;;;4980905;28;20045;-80
2023/02/18 09:40:42;;;;;;;0.52;0.50;;;12.70;99.90;;;;;;4994181;28;20103;-82
2023/02/18 09:43:22;;;;;;;2.15;1.10;;;12.80;99.90;;;;;;5000655;28;20053;-82
2023/02/18 09:45:50;;;;;;;1.77;0.50;;;12.80;99.90;;;;;;4981901;28;20056;-81
2023/02/18 09:48:16;;;;;;;1.05;0.65;;;12.70;99.90;;;;;;4997334;28;20048;-81
2023/02/18 09:50:44;;;;;;;1.83;0.65;;;12.70;99.90;;;;;;4993518;28;20069;-80
2023/02/18 09:53:11;;;;;;;2.78;0.90;;;12.60;99.90;;;;;;5000038;28;20145;-80
2023/02/18 09:55:39;;;;;;;1.77;0.60;;;12.60;99.90;;;;;;5017566;28;20085;-80
2023/02/18 09:58:20;;;;;;;0.73;0.30;;;12.60;99.90;;;;;;4995876;28;20627;-80
2023/02/18 10:00:53;;;;;;;0.75;0.50;;;12.70;99.90;;;;;;4996964;28;20045;-79
2023/02/18 10:03:24;;;;;;;2.40;0.88;;;12.80;99.90;;;;;;4977655;28;20485;-79
2023/02/18 10:05:56;;;;;;;1.27;0.50;;;12.80;99.90;;;;;;4999255;28;20381;-81
2023/02/18 10:08:28;;;;;;;1.27;0.43;;;12.80;99.90;;;;;;5000382;28;20064;-82
2023/02/18 10:10:54;;;;;;;1.02;0.50;;;12.90;99.90;;;;;;4983269;28;20154;-82
2023/02/18 10:13:24;;;;;;;0.95;0.45;;;13.00;99.90;;;;;;4979444;28;20413;-80
2023/02/18 10:15:51;;;;;;;2.90;0.90;;;13.10;99.90;;;;;;4998006;28;20060;-81
2023/02/18 10:18:38;;;;;;;1.60;0.60;;;13.30;99.90;;;;;;4999012;28;20451;-80
2023/02/18 10:21:07;;;;;;;2.75;1.10;;;13.30;99.90;;;;;;4990975;28;20438;-81
2023/02/18 10:23:37;;;;;;;0.90;0.45;;;13.30;99.90;;;;;;4997264;28;20084;-80
2023/02/18 10:26:06;;;;;;;2.00;0.77;;;13.40;99.90;;;;;;5000207;28;20357;-80
2023/02/18 10:28:34;;;;;;;1.48;0.82;;;13.40;99.90;;;;;;4981381;28;20124;-81
2023/02/18 10:31:09;;;;;;;0.47;0.47;;;13.40;99.90;;;;;;4998231;28;20076;-80
2023/02/18 10:33:43;;;;;;;1.75;0.60;;;13.50;99.90;;;;;;5000517;28;20752;-81
2023/02/18 10:36:32;;;;;;;0.95;0.40;;;13.50;99.90;;;;;;5014815;28;20059;-80
2023/02/18 10:39:20;;;;;;;1.77;0.70;;;13.60;99.90;;;;;;4996126;28;20079;-81
2023/02/18 10:41:51;;;;;;;1.13;0.50;;;13.60;99.90;;;;;;4998771;28;20495;-81
2023/02/18 10:44:29;;;;;;;0.68;0.43;;;13.60;99.90;;;;;;5016103;28;20402;-81
2023/02/18 10:46:59;;;;;;;0.73;0.47;;;13.50;99.90;;;;;;4997988;28;20480;-78
2023/02/18 10:49:36;;;;;;;2.97;1.08;;;13.50;99.90;;;;;;4985258;28;20210;-78
2023/02/18 10:52:04;;;;;;;1.98;0.80;;;13.50;99.90;;;;;;4988536;28;20067;-79
2023/02/18 10:54:59;;;;;;;3.63;0.82;;;13.60;99.90;;;;;;4999859;28;20133;-79
2023/02/18 10:57:25;;;;;;;1.27;0.57;;;13.50;99.90;;;;;;5000846;28;20064;-80
2023/02/18 10:59:57;;;;;;;0.88;0.47;;;13.60;99.90;;;;;;4996837;28;20696;-79
2023/02/18 11:02:34;;;;;;;1.25;0.60;;;13.50;99.90;;;;;;5013792;28;20055;-79
2023/02/18 11:05:06;;;;;;;1.65;0.50;;;13.60;99.90;;;;;;4984202;28;20053;-79
2023/02/18 11:07:33;;;;;;;0.55;0.55;;;13.60;99.90;;;;;;4994873;28;20432;-79
2023/02/18 11:10:14;;;;;;;0.75;0.40;;;13.70;99.90;;;;;;4997157;28;20466;-79
2023/02/18 11:12:55;;;;;;;1.00;0.50;;;13.70;99.90;;;;;;4999797;28;20274;-79
2023/02/18 11:15:24;;;;;;;0.55;0.40;;;13.50;99.90;;;;;;4965475;28;20053;-79
2023/02/18 11:17:53;;;;;;;0.82;0.50;;;13.50;99.90;;;;;;4967925;28;20346;-77
2023/02/18 11:20:29;;;;;;;1.98;0.50;;;13.60;99.90;;;;;;4999228;28;20088;-77
2023/02/18 11:23:04;;;;;;;1.77;0.50;;;13.70;99.90;;;;;;5010006;28;20500;-76
2023/02/18 11:25:35;;;;;;;1.10;0.50;;;13.70;99.90;;;;;;5010189;28;20564;-76
2023/02/18 11:28:23;;;;;;;0.95;0.60;;;13.70;99.90;;;;;;4991249;28;20497;-78
2023/02/18 11:30:54;;;;;;;0.43;0.40;;;13.60;99.90;;;;;;4991048;28;20053;-79
2023/02/18 11:33:35;;;;;;;1.13;0.60;;;13.60;99.90;;;;;;4991561;28;20309;-77
2023/02/18 11:36:05;;;;;;;1.17;0.77;;;13.50;99.90;;;;;;4995706;28;20057;-77
2023/02/18 11:38:37;;;;;;;1.05;0.60;;;13.50;99.90;;;;;;4992879;28;20144;-78
2023/02/18 11:41:11;;;;;;;1.70;0.60;;;13.50;99.90;;;;;;4990459;28;20663;-78
2023/02/18 11:43:42;;;;;;;1.15;0.43;;;13.50;99.90;;;;;;5000342;28;20473;-77
2023/02/18 11:46:14;;;;;;;0.80;0.45;;;13.50;99.90;;;;;;4979576;28;20045;-80
2023/02/18 11:48:41;;;;;;;0.75;0.50;;;13.50;99.90;;;;;;4997039;28;20056;-87
2023/02/18 11:51:18;;;;;;;2.38;0.57;;;13.40;99.90;;;;;;4990758;28;20060;-83
2023/02/18 11:54:02;;;;;;;1.05;0.40;;;13.50;99.90;;;;;;4979207;28;20060;-81
2023/02/18 11:56:31;;;;;;;0.30;0.30;;;13.50;99.90;;;;;;4994360;28;20133;-76
2023/02/18 11:58:59;;;;;;;5.47;1.08;;;13.60;99.90;;;;;;4991280;28;20759;-82
2023/02/18 12:01:40;;;;;;;1.00;0.60;;;13.60;99.90;;;;;;4974283;28;20068;-72
2023/02/18 12:04:12;;;;;;;0.80;0.50;;;13.60;99.90;;;;;;4997607;28;20051;-72
2023/02/18 12:07:04;;;;;;;1.75;0.68;;;13.60;99.90;;;;;;5012030;28;20465;-72
2023/02/18 12:09:36;;;;;;;1.42;0.55;;;13.60;99.90;;;;;;5011985;28;20046;-84
2023/02/18 12:12:07;;;;;;;0.68;0.60;;;13.60;99.90;;;;;;4960551;28;20053;-72
2023/02/18 12:14:33;;;;;;;0.50;0.43;;;13.60;99.90;;;;;;4998120;28;20485;-71
2023/02/18 12:17:12;;;;;;;0.77;0.50;;;13.60;99.90;;;;;;4993558;28;20050;-72
2023/02/18 12:19:51;;;;;;;0.98;0.60;;;13.60;99.90;;;;;;5005832;28;20045;-71
2023/02/18 12:22:38;;;;;;;0.60;0.60;;;13.60;99.90;;;;;;4997507;28;20051;-71
2023/02/18 12:25:24;;;;;;;0.82;0.50;;;13.60;99.90;;;;;;4993983;28;20166;-72
2023/02/18 12:27:55;;;;;;;0.40;0.40;;;13.60;99.90;;;;;;5015394;28;20045;-73
2023/02/18 12:30:48;;;;;;;1.17;0.40;;;13.60;99.90;;;;;;4986775;28;20083;-71
2023/02/18 12:33:39;;;;;;;0.85;0.60;;;13.60;99.90;;;;;;5000322;28;20135;-72
2023/02/18 12:36:18;;;;;;;0.50;0.40;;;13.60;99.90;;;;;;5012713;28;20057;-72
2023/02/18 12:38:50;;;;;;;0.30;0.30;;;13.50;99.90;;;;;;4999490;28;20073;-72
2023/02/18 12:41:26;;;;;;;1.38;0.35;;;13.50;99.90;;;;;;5016692;28;20045;-72
2023/02/18 12:44:04;;;;;;;0.82;0.50;;;13.50;99.90;;;;;;5015638;28;20061;-71
2023/02/18 12:46:34;;;;;;;0.65;0.40;;;13.50;99.90;;;;;;4997883;28;20422;-73
2023/02/18 12:49:47;;;;;;;0.90;0.40;;;13.40;99.90;;;;;;5000512;28;20069;-71
2023/02/18 12:52:39;;;;;;;0.32;0.32;;;13.40;99.90;;;;;;5007861;28;20496;-71
2023/02/18 12:55:28;;;;;;;0.52;0.40;;;13.40;99.90;;;;;;5017969;28;20053;-72
2023/02/18 12:58:08;;;;;;;0.80;0.50;;;13.30;99.90;;;;;;5015791;28;20407;-71
2023/02/18 13:00:48;;;;;;;1.55;0.60;;;13.30;99.90;;;;;;4991884;28;20061;-72
2023/02/18 13:03:55;;;;;;;1.23;0.50;;;13.30;99.90;;;;;;4999340;28;20775;-71
2023/02/18 13:07:00;;;;;;;0.68;0.45;;;13.20;99.90;;;;;;5001206;28;20077;-71